Rapid City, SD (57701)

9:44 AM MDT on August 22, 2014 (GMT -0600)
KSDKYLE1 | Change Station
CLOSE
Current Station
Personal Weather Station
Location: Rapid City, SD
Elevation: 3251 ft
Nearby Weather Stations

Elev 3251 ft 44.06 °N, 103.20 °W | Updated 16 minutes ago

Overcast
Overcast
64.0 °F
Feels Like 64.0 °F
N
0.0
Wind Variable Wind from North
Gusts 4.0 mph

Today
High -- | Low -- °F
--% Chance of Precip.
Yesterday
High -- | Low -- °F
Precip. -- in
6:04 AM 7:45 PM
Waning Crescent, 8% visible
Pressure 30.08 in
Visibility 10.0 miles
Clouds Overcast 500 ft
Dew Point 60 °F
Humidity 88%
Rainfall 0.00 in
Snow Depth Not available.
UV 1 out of 12
Pollen 9.60 out of 12
Air Quality Not available.
Flu Activity Not available.
SPECI KRAP 221533Z 01007KT 10SM OVC005 18/16 A3008 RMK AO2 T01830161

More Conditions Fewer Conditions

Pressure 30.08 in
Visibility 10.0 miles
Clouds Overcast 500 ft
Dew Point 60 °F
Humidity 88%
Rainfall 0.00 in
Snow Depth Not available.
UV 1 out of 12
Pollen 9.60 out of 12
Air Quality Not available.
Flu Activity Not available.
SPECI KRAP 221533Z 01007KT 10SM OVC005 18/16 A3008 RMK AO2 T01830161

More Conditions Fewer Conditions

10-Day Weather Forecast

Almanac

Astronomy

Aug. 22, 2014 Rise Set
Actual Time 6:04 AM MDT 7:45 PM MDT
Civil Twilight 5:33 AM MDT 8:16 PM MDT
Nautical Twilight 4:56 AM MDT 8:53 PM MDT
Astronomical Twilight 4:16 AM MDT 9:33 PM MDT
Moon 3:26 AM MDT 5:57 PM MDT
Length of Visible Light 14h 42m
Length of Day
13h 41m
Tomorrow will be 2m 49s shorter.
Waning Crescent, 8% of the Moon is Illuminated
Today
Waning Crescent
Aug 25
New
Sep 2
First Quarter
Sep 8
Full
Sep 15
Last Quarter

Today's Extremes

State Highs State Lows

Community

WunderPhotos

Upload Photos

1,746,188 photos uploaded!

Nearby

Snow Depth

Station Depth Elevation
North Rapid Creek 0 in 6130 ft

Earthquake Activity

City Distance Mag. Time & Date
No recent earthquake activity has been reported nearby.
Minimum magnitude displayed is 2.5.

Coastal Water Temperatures

Place Temperature
No Stations Reporting

Nearby Weather Stations